createdAt,value
2023-03-02T00:01:48.363Z,57.40
2023-03-02T00:04:22.800Z,50.42
2023-03-02T00:06:56.316Z,53.28
2023-03-02T00:11:56.068Z,54.72
2023-03-02T00:14:29.124Z,52.38
2023-03-02T00:17:02.778Z,52.25
2023-03-02T00:19:31.737Z,52.25
2023-03-02T00:22:01.240Z,58.08
2023-03-02T00:24:31.317Z,54.17
2023-03-02T00:27:03.180Z,60.78
2023-03-02T00:29:32.015Z,52.20
2023-03-02T00:32:00.882Z,55.78
2023-03-02T00:34:33.736Z,57.20
2023-03-02T00:37:02.709Z,54.15
2023-03-02T00:39:32.918Z,57.97
2023-03-02T00:42:01.979Z,52.20
2023-03-02T00:44:31.153Z,50.45
2023-03-02T00:47:03.369Z,53.97
2023-03-02T00:49:32.101Z,56.45
2023-03-02T00:52:00.874Z,58.40
2023-03-02T00:54:29.708Z,59.30
2023-03-02T00:57:00.360Z,57.67
2023-03-02T00:59:30.126Z,57.58
2023-03-02T01:02:22.659Z,57.00
2023-03-02T01:04:53.259Z,60.78
2023-03-02T01:07:22.368Z,52.28
2023-03-02T01:09:51.149Z,61.38
2023-03-02T01:12:21.563Z,60.22
2023-03-02T01:14:50.932Z,61.28
2023-03-02T01:17:22.174Z,60.70
2023-03-02T01:19:53.609Z,63.58
2023-03-02T01:22:22.866Z,63.63
2023-03-02T01:24:54.367Z,63.15
2023-03-02T01:27:25.421Z,63.50
2023-03-02T01:29:54.762Z,65.07
2023-03-02T01:32:23.499Z,65.25
2023-03-02T01:34:52.828Z,66.18
2023-03-02T01:37:23.075Z,66.68
2023-03-02T01:39:52.152Z,55.67
2023-03-02T01:42:21.076Z,66.40
2023-03-02T01:44:54.368Z,67.78
2023-03-02T01:47:26.696Z,74.00
2023-03-02T01:50:07.212Z,67.75
2023-03-02T01:52:40.535Z,65.65
2023-03-02T01:55:13.001Z,67.57
2023-03-02T01:57:45.718Z,65.82
2023-03-02T02:00:22.041Z,73.07
2023-03-02T02:02:52.270Z,71.95
2023-03-02T02:05:26.932Z,69.85
2023-03-02T02:07:57.317Z,64.93
2023-03-02T02:10:28.189Z,68.90
2023-03-02T02:12:56.974Z,63.38
2023-03-02T02:15:28.297Z,67.03
2023-03-02T02:20:38.699Z,61.33
2023-03-02T02:23:20.597Z,64.95
2023-03-02T02:26:03.085Z,59.67
2023-03-02T02:28:36.923Z,61.83
2023-03-02T02:31:12.124Z,67.57
2023-03-02T02:33:43.305Z,61.53
2023-03-02T02:36:19.789Z,59.92
2023-03-02T02:38:52.771Z,61.47
2023-03-02T02:41:27.530Z,62.85
2023-03-02T02:43:57.397Z,59.63
2023-03-02T02:46:27.450Z,57.83
2023-03-02T02:48:57.723Z,65.28
2023-03-02T02:51:28.664Z,63.10
2023-03-02T02:53:59.912Z,58.85
2023-03-02T02:56:35.825Z,61.72
2023-03-02T02:59:08.267Z,62.95
2023-03-02T03:01:37.302Z,57.33
2023-03-02T03:04:07.692Z,61.85
2023-03-02T03:06:42.574Z,57.28
2023-03-02T03:09:14.050Z,57.30
2023-03-02T03:11:51.367Z,56.85
2023-03-02T03:14:28.107Z,59.83
2023-03-02T03:16:57.655Z,59.78
2023-03-02T03:19:28.983Z,51.65
2023-03-02T03:22:00.819Z,54.33
2023-03-02T03:24:36.523Z,58.95
2023-03-02T03:27:10.119Z,56.88
2023-03-02T03:29:45.596Z,62.28
2023-03-02T03:32:16.224Z,58.63
2023-03-02T03:34:45.235Z,68.35
2023-03-02T03:37:22.116Z,56.90
2023-03-02T03:39:51.690Z,55.13
2023-03-02T03:42:22.702Z,58.70
2023-03-02T03:44:51.688Z,62.97
2023-03-02T03:47:20.979Z,56.30
2023-03-02T03:49:50.876Z,59.17
2023-03-02T03:52:30.764Z,62.08
2023-03-02T03:55:09.230Z,57.70
2023-03-02T03:57:39.780Z,49.53
2023-03-02T04:00:15.076Z,62.22
2023-03-02T04:02:48.637Z,54.10
2023-03-02T04:05:17.659Z,55.17
2023-03-02T04:07:46.852Z,58.60
2023-03-02T04:10:15.766Z,65.22
2023-03-02T04:12:48.048Z,54.65
2023-03-02T04:15:18.076Z,62.13
2023-03-02T04:17:49.208Z,58.03
2023-03-02T04:20:21.312Z,61.42
2023-03-02T04:22:54.843Z,56.93
2023-03-02T04:25:25.939Z,51.47
2023-03-02T04:27:59.942Z,54.60
2023-03-02T04:30:33.225Z,53.30
2023-03-02T04:33:04.513Z,53.72
2023-03-02T04:35:35.106Z,54.47
2023-03-02T04:38:05.268Z,54.13
2023-03-02T04:40:34.226Z,53.90
2023-03-02T04:43:04.452Z,56.55
2023-03-02T04:45:33.431Z,53.97
2023-03-02T04:48:02.156Z,57.83
2023-03-02T04:50:31.022Z,48.40
2023-03-02T04:52:59.826Z,50.17
2023-03-02T04:55:29.088Z,51.97
2023-03-02T04:57:57.965Z,46.75
2023-03-02T05:00:29.143Z,57.75
2023-03-02T05:02:58.321Z,54.67
2023-03-02T05:05:33.640Z,48.45
2023-03-02T05:08:04.784Z,56.70
2023-03-02T05:10:33.926Z,46.67
2023-03-02T05:13:05.158Z,49.47
2023-03-02T05:15:37.753Z,48.25
2023-03-02T05:18:09.226Z,44.90
2023-03-02T05:20:38.481Z,50.10
2023-03-02T05:23:11.392Z,52.20
2023-03-02T05:25:40.189Z,49.20
2023-03-02T05:28:08.887Z,46.55
2023-03-02T05:30:39.051Z,53.15
2023-03-02T05:33:18.203Z,51.28
2023-03-02T05:35:49.690Z,44.28
2023-03-02T05:38:21.260Z,51.20
2023-03-02T05:40:50.636Z,51.08
2023-03-02T05:43:21.845Z,47.83
2023-03-02T05:46:49.706Z,44.08
2023-03-02T05:49:20.157Z,46.17
2023-03-02T05:51:49.175Z,48.67
2023-03-02T05:54:18.383Z,45.20
2023-03-02T05:56:48.894Z,50.30
2023-03-02T05:59:19.010Z,46.40
2023-03-02T06:01:50.440Z,50.08
2023-03-02T06:04:20.577Z,47.53
2023-03-02T06:06:49.340Z,50.85
2023-03-02T06:09:20.242Z,50.67
2023-03-02T06:11:51.380Z,46.00
2023-03-02T06:14:20.227Z,46.88
2023-03-02T06:16:49.350Z,48.83
2023-03-02T06:19:18.101Z,41.60
2023-03-02T06:21:50.373Z,48.35
2023-03-02T06:24:19.322Z,44.47
2023-03-02T06:26:48.072Z,47.97
2023-03-02T06:29:17.155Z,51.83
2023-03-02T06:31:45.900Z,48.97
2023-03-02T06:34:14.965Z,49.25
2023-03-02T06:36:43.740Z,49.17
2023-03-02T06:39:16.767Z,49.75
2023-03-02T06:41:46.949Z,49.67
2023-03-02T06:44:19.122Z,49.28
2023-03-02T06:46:47.950Z,48.20
2023-03-02T06:49:16.637Z,48.38
2023-03-02T06:51:45.452Z,50.30
2023-03-02T06:54:15.545Z,50.88
2023-03-02T06:56:44.318Z,50.20
2023-03-02T06:59:12.991Z,47.47
2023-03-02T07:01:44.495Z,55.30
2023-03-02T07:04:13.284Z,47.22
2023-03-02T07:06:42.014Z,54.97
2023-03-02T07:09:11.006Z,55.20
2023-03-02T07:11:44.486Z,52.17
2023-03-02T07:14:13.362Z,55.65
2023-03-02T07:16:42.525Z,52.85
2023-03-02T07:19:14.326Z,55.72
2023-03-02T07:21:43.174Z,52.85
2023-03-02T07:24:12.071Z,56.97
2023-03-02T07:26:40.852Z,55.88
2023-03-02T07:29:11.056Z,51.92
2023-03-02T07:31:44.369Z,58.05
2023-03-02T07:34:13.096Z,53.85
2023-03-02T07:36:41.872Z,56.55
2023-03-02T07:39:10.553Z,58.38
2023-03-02T07:41:39.330Z,48.78
2023-03-02T07:44:11.734Z,54.85
2023-03-02T07:46:40.613Z,53.60
2023-03-02T07:49:09.414Z,53.83
2023-03-02T07:51:38.239Z,55.10
2023-03-02T07:54:07.082Z,53.58
2023-03-02T07:56:35.885Z,57.00
2023-03-02T07:59:06.966Z,52.65
2023-03-02T08:01:37.137Z,49.80
2023-03-02T08:04:06.258Z,60.78
2023-03-02T08:06:35.025Z,50.20
2023-03-02T08:09:04.180Z,59.33
2023-03-02T08:11:33.179Z,49.28
2023-03-02T08:14:02.690Z,43.85
2023-03-02T08:16:34.096Z,56.03
2023-03-02T08:19:04.369Z,50.80
2023-03-02T08:21:34.024Z,50.75
2023-03-02T08:24:03.021Z,50.75
2023-03-02T08:26:32.229Z,43.53
2023-03-02T08:29:00.998Z,50.20
2023-03-02T08:31:29.884Z,46.33
2023-03-02T08:33:59.471Z,51.95
2023-03-02T08:36:30.822Z,46.65
2023-03-02T08:38:59.692Z,50.45
2023-03-02T08:41:28.569Z,43.60
2023-03-02T08:43:57.839Z,48.13
2023-03-02T08:46:26.613Z,43.83
2023-03-02T08:48:55.456Z,42.22
2023-03-02T08:51:25.658Z,38.33
2023-03-02T08:53:56.745Z,36.30
2023-03-02T08:56:27.737Z,37.15
2023-03-02T08:58:59.905Z,41.92
2023-03-02T09:01:35.139Z,39.60
2023-03-02T09:04:05.324Z,35.60
2023-03-02T09:06:37.119Z,38.22
2023-03-02T09:09:08.566Z,37.35
2023-03-02T09:14:07.807Z,33.13
2023-03-02T09:16:36.690Z,35.20
2023-03-02T09:19:05.486Z,34.80
2023-03-02T09:21:37.293Z,35.65
2023-03-02T09:24:10.159Z,32.17
2023-03-02T09:26:39.393Z,29.98
2023-03-02T09:29:08.537Z,30.38
2023-03-02T09:31:38.501Z,35.90
2023-03-02T09:34:07.756Z,33.50
2023-03-02T09:36:36.692Z,25.92
2023-03-02T09:39:12.458Z,31.83
2023-03-02T09:42:11.607Z,30.73
2023-03-02T09:45:30.865Z,24.30
2023-03-02T09:48:13.036Z,31.80
2023-03-02T09:50:52.583Z,27.23
2023-03-02T09:53:36.029Z,27.17
2023-03-02T09:56:15.840Z,26.50
2023-03-02T09:58:51.085Z,25.15
2023-03-02T10:01:31.291Z,26.88
2023-03-02T10:04:10.729Z,30.02
2023-03-02T10:06:39.528Z,24.73
2023-03-02T10:09:10.857Z,33.75
2023-03-02T10:11:54.992Z,26.85
2023-03-02T10:14:27.315Z,25.58
2023-03-02T10:17:11.007Z,37.33
2023-03-02T10:22:17.244Z,27.85
2023-03-02T10:24:58.180Z,25.70
2023-03-02T10:27:36.042Z,26.98
2023-03-02T10:30:09.167Z,22.58
2023-03-02T10:32:43.160Z,24.58
2023-03-02T10:35:16.269Z,22.58
2023-03-02T10:37:46.257Z,25.63
2023-03-02T10:40:30.802Z,27.80
2023-03-02T10:43:01.823Z,24.90
2023-03-02T10:45:32.152Z,24.52
2023-03-02T10:48:04.890Z,23.20
2023-03-02T10:50:33.819Z,28.13
2023-03-02T10:53:05.129Z,22.20
2023-03-02T10:55:34.852Z,24.23
2023-03-02T10:58:08.653Z,27.10
2023-03-02T11:00:37.535Z,22.55
2023-03-02T11:03:21.781Z,22.58
2023-03-02T11:05:50.678Z,21.48
2023-03-02T11:08:21.856Z,23.38
2023-03-02T11:10:57.030Z,24.92
2023-03-02T11:13:32.556Z,26.65
2023-03-02T11:16:02.707Z,24.90
2023-03-02T11:18:36.437Z,27.08
2023-03-02T11:21:09.504Z,25.33
2023-03-02T11:23:50.313Z,28.27
2023-03-02T11:26:24.804Z,25.15
2023-03-02T11:29:01.219Z,24.58
2023-03-02T11:31:39.340Z,24.20
2023-03-02T11:34:19.922Z,25.55
2023-03-02T11:36:58.998Z,27.02
2023-03-02T11:39:33.414Z,23.90
2023-03-02T11:42:02.410Z,20.95
2023-03-02T11:44:32.554Z,21.45
2023-03-02T11:47:02.998Z,22.50
2023-03-02T11:49:39.316Z,23.88
2023-03-02T11:52:18.257Z,23.13
2023-03-02T11:54:50.663Z,22.80
2023-03-02T11:57:23.922Z,21.33
2023-03-02T11:59:56.117Z,26.48
2023-03-02T12:02:26.145Z,19.95
2023-03-02T12:05:04.389Z,20.60
2023-03-02T12:07:33.755Z,21.77
2023-03-02T12:10:07.204Z,25.00
2023-03-02T12:12:44.526Z,26.80
2023-03-02T12:15:40.825Z,23.30
2023-03-02T12:18:55.350Z,25.00
2023-03-02T12:21:27.225Z,25.77
2023-03-02T12:24:04.090Z,20.75
2023-03-02T12:26:37.487Z,25.65
2023-03-02T12:29:24.260Z,22.08
2023-03-02T12:31:56.898Z,23.90
2023-03-02T12:34:45.645Z,23.80
2023-03-02T12:37:19.329Z,27.63
2023-03-02T12:40:30.193Z,23.88
2023-03-02T12:43:20.323Z,29.85
2023-03-02T12:46:20.592Z,25.05
2023-03-02T12:49:00.045Z,27.05
2023-03-02T12:51:34.786Z,25.27
2023-03-02T12:54:07.267Z,23.75
2023-03-02T12:56:38.389Z,27.65
2023-03-02T12:59:07.565Z,25.92
2023-03-02T13:01:36.416Z,26.38
2023-03-02T13:04:06.649Z,29.10
2023-03-02T13:06:40.208Z,26.55
2023-03-02T13:09:16.516Z,28.60
2023-03-02T13:11:45.644Z,29.67
2023-03-02T13:14:21.035Z,27.77
2023-03-02T13:17:02.952Z,28.23
2023-03-02T13:19:34.171Z,27.73
2023-03-02T13:22:03.162Z,29.73
2023-03-02T13:24:37.719Z,26.67
2023-03-02T13:27:08.619Z,27.75
2023-03-02T13:29:39.544Z,26.70
2023-03-02T13:32:19.949Z,26.13
2023-03-02T13:34:51.940Z,25.95
2023-03-02T13:37:34.997Z,27.08
2023-03-02T13:40:07.923Z,24.77
2023-03-02T13:42:40.576Z,29.67
2023-03-02T13:45:23.921Z,28.52
2023-03-02T13:50:26.117Z,27.33
2023-03-02T13:52:57.810Z,27.98
2023-03-02T13:55:28.829Z,28.52
2023-03-02T13:57:58.523Z,30.05
2023-03-02T14:00:33.351Z,25.80
2023-03-02T14:03:03.304Z,28.27
2023-03-02T14:05:34.120Z,29.20
2023-03-02T14:08:04.172Z,29.60
2023-03-02T14:10:33.509Z,28.27
2023-03-02T14:13:07.327Z,32.13
2023-03-02T14:15:41.789Z,27.90
2023-03-02T14:18:25.840Z,30.55
2023-03-02T14:20:57.435Z,32.97
2023-03-02T14:23:27.391Z,31.25
2023-03-02T14:25:57.813Z,28.42
2023-03-02T14:28:32.578Z,27.23
2023-03-02T14:31:01.832Z,26.85
2023-03-02T14:33:30.788Z,27.70
2023-03-02T14:36:01.495Z,30.80
2023-03-02T14:38:31.583Z,30.23
2023-03-02T14:41:00.542Z,31.67
2023-03-02T14:43:31.874Z,29.60
2023-03-02T14:46:01.297Z,28.30
2023-03-02T14:48:30.453Z,29.15
2023-03-02T14:51:04.178Z,26.23
2023-03-02T14:53:36.325Z,28.88
2023-03-02T14:56:08.043Z,30.83
2023-03-02T14:58:39.233Z,26.75
2023-03-02T15:01:08.683Z,23.88
2023-03-02T15:03:37.926Z,25.70
2023-03-02T15:06:24.917Z,26.90
2023-03-02T15:08:54.212Z,26.60
2023-03-02T15:11:26.589Z,25.90
2023-03-02T15:13:55.980Z,22.13
2023-03-02T15:16:25.522Z,30.20
2023-03-02T15:18:54.676Z,25.40
2023-03-02T15:21:26.109Z,24.08
2023-03-02T15:23:55.160Z,24.83
2023-03-02T15:26:24.182Z,26.50
2023-03-02T15:28:53.180Z,26.95
2023-03-02T15:31:25.067Z,24.48
2023-03-02T15:33:56.929Z,25.50
2023-03-02T15:36:27.502Z,27.92
2023-03-02T15:38:56.514Z,29.42
2023-03-02T15:41:26.021Z,27.48
2023-03-02T15:43:55.706Z,26.58
2023-03-02T15:46:25.477Z,28.05
2023-03-02T15:48:57.200Z,25.05
2023-03-02T15:51:28.028Z,27.80
2023-03-02T15:53:57.214Z,32.83
2023-03-02T15:56:30.460Z,28.27
2023-03-02T15:59:05.028Z,27.13
2023-03-02T16:01:34.524Z,28.38
2023-03-02T16:04:03.487Z,33.35
2023-03-02T16:06:34.171Z,28.73
2023-03-02T16:09:06.292Z,31.33
2023-03-02T16:11:37.651Z,27.02
2023-03-02T16:14:07.227Z,27.10
2023-03-02T16:16:36.663Z,34.58
2023-03-02T16:19:11.814Z,27.57
2023-03-02T16:21:42.605Z,30.42
2023-03-02T16:24:13.156Z,27.23
2023-03-02T16:26:42.698Z,28.23
2023-03-02T16:29:13.655Z,26.17
2023-03-02T16:31:43.490Z,28.55
2023-03-02T16:34:15.756Z,27.60
2023-03-02T16:36:46.768Z,26.92
2023-03-02T16:39:16.585Z,24.02
2023-03-02T16:41:46.904Z,24.80
2023-03-02T16:44:18.336Z,24.98
2023-03-02T16:46:48.332Z,24.60
2023-03-02T16:49:18.176Z,25.92
2023-03-02T16:51:48.654Z,23.10
2023-03-02T16:54:19.690Z,24.55
2023-03-02T16:56:48.672Z,22.88
2023-03-02T16:59:17.947Z,22.25
2023-03-02T17:01:47.226Z,24.42
2023-03-02T17:04:18.447Z,24.73
2023-03-02T17:07:00.516Z,26.10
2023-03-02T17:09:30.496Z,18.25
2023-03-02T17:11:59.919Z,21.98
2023-03-02T17:14:31.953Z,20.90
2023-03-02T17:17:03.626Z,22.42
2023-03-02T17:19:32.780Z,35.88
2023-03-02T17:22:03.938Z,32.65
2023-03-02T17:27:08.596Z,110.90
2023-03-02T17:29:39.983Z,22.90
2023-03-02T17:32:09.874Z,21.55
2023-03-02T17:34:39.017Z,21.45
2023-03-02T17:37:09.556Z,25.27
2023-03-02T17:39:39.013Z,25.83
2023-03-02T17:42:08.463Z,24.17
2023-03-02T17:44:40.155Z,26.00
2023-03-02T17:47:09.299Z,23.55
2023-03-02T17:49:39.726Z,26.77
2023-03-02T17:52:10.875Z,24.80
2023-03-02T17:54:41.014Z,27.92
2023-03-02T17:57:11.173Z,29.38
2023-03-02T17:59:40.640Z,26.65
2023-03-02T18:02:11.483Z,28.30
2023-03-02T18:04:40.739Z,29.83
2023-03-02T18:07:11.327Z,25.20
2023-03-02T18:09:40.689Z,28.83
2023-03-02T18:12:10.377Z,24.25
2023-03-02T18:14:39.722Z,30.05
2023-03-02T18:17:10.201Z,30.83
2023-03-02T18:19:39.482Z,108.72
2023-03-02T18:22:08.652Z,50.05
2023-03-02T18:24:39.278Z,32.88
2023-03-02T18:27:08.788Z,30.35
2023-03-02T18:29:38.067Z,26.65
2023-03-02T18:32:07.557Z,26.05
2023-03-02T18:34:36.807Z,27.65
2023-03-02T18:37:06.295Z,25.73
2023-03-02T18:39:35.861Z,27.10
2023-03-02T18:42:07.343Z,21.25
2023-03-02T18:44:36.459Z,23.48
2023-03-02T18:47:08.764Z,24.50
2023-03-02T18:49:38.304Z,24.55
2023-03-02T18:52:07.549Z,21.88
2023-03-02T18:54:39.430Z,22.58
2023-03-02T18:57:10.116Z,20.63
2023-03-02T18:59:39.341Z,23.88
2023-03-02T19:02:10.567Z,20.40
2023-03-02T19:04:40.127Z,20.33
2023-03-02T19:07:12.866Z,20.70
2023-03-02T19:09:42.231Z,23.13
2023-03-02T19:12:12.969Z,22.35
2023-03-02T19:14:43.487Z,20.58
2023-03-02T19:17:15.141Z,21.05
2023-03-02T19:19:44.163Z,23.40
2023-03-02T19:22:14.281Z,21.02
2023-03-02T19:24:44.397Z,17.95
2023-03-02T19:27:15.460Z,21.95
2023-03-02T19:29:45.384Z,21.73
2023-03-02T19:32:15.350Z,26.95
2023-03-02T19:34:44.619Z,22.02
2023-03-02T19:37:14.132Z,22.40
2023-03-02T19:39:43.527Z,21.20
2023-03-02T19:42:13.204Z,32.88
2023-03-02T19:44:44.190Z,28.55
2023-03-02T19:47:13.894Z,23.05
2023-03-02T19:49:43.628Z,22.73
2023-03-02T19:52:13.482Z,21.45
2023-03-02T19:54:43.623Z,26.88
2023-03-02T19:57:14.986Z,21.88
2023-03-02T19:59:46.526Z,24.00
2023-03-02T20:02:16.731Z,23.55
2023-03-02T20:04:46.959Z,19.70
2023-03-02T20:07:16.727Z,20.30
2023-03-02T20:09:48.740Z,22.88
2023-03-02T20:12:19.823Z,18.27
2023-03-02T20:14:51.531Z,20.20
2023-03-02T20:17:21.655Z,24.10
2023-03-02T20:19:52.650Z,19.92
2023-03-02T20:22:22.444Z,19.58
2023-03-02T20:24:52.069Z,18.48
2023-03-02T20:27:21.808Z,21.13
2023-03-02T20:29:52.407Z,25.48
2023-03-02T20:32:21.817Z,20.48
2023-03-02T20:34:51.406Z,18.80
2023-03-02T20:37:25.909Z,21.92
2023-03-02T20:39:55.122Z,20.33
2023-03-02T20:42:24.349Z,19.55
2023-03-02T20:44:56.504Z,21.70
2023-03-02T20:47:25.675Z,24.42
2023-03-02T20:49:59.696Z,19.02
2023-03-02T20:52:29.292Z,28.00
2023-03-02T20:54:58.413Z,24.75
2023-03-02T20:57:27.816Z,26.00
2023-03-02T20:59:59.027Z,20.60
2023-03-02T21:02:28.201Z,19.30
2023-03-02T21:04:57.691Z,20.27
2023-03-02T21:07:29.186Z,19.52
2023-03-02T21:09:58.918Z,16.23
2023-03-02T21:12:28.297Z,17.95
2023-03-02T21:14:59.407Z,17.35
2023-03-02T21:17:29.066Z,17.70
2023-03-02T21:19:59.002Z,18.63
2023-03-02T21:22:28.647Z,19.05
2023-03-02T21:24:58.446Z,15.98
2023-03-02T21:27:30.075Z,19.60
2023-03-02T21:30:03.387Z,18.08
2023-03-02T21:32:32.279Z,13.25
2023-03-02T21:35:02.934Z,13.98
2023-03-02T21:37:31.960Z,16.30
2023-03-02T21:40:01.729Z,13.60
2023-03-02T21:42:31.300Z,16.50
2023-03-02T21:45:02.195Z,13.57
2023-03-02T21:47:31.572Z,18.02
2023-03-02T21:50:01.497Z,17.92
2023-03-02T21:52:30.553Z,14.50
2023-03-02T21:55:02.004Z,14.73
2023-03-02T21:57:31.170Z,16.23
2023-03-02T22:00:04.204Z,13.93
2023-03-02T22:05:04.649Z,13.30
2023-03-02T22:07:35.891Z,15.88
2023-03-02T22:10:05.546Z,16.88
2023-03-02T22:12:34.724Z,12.90
2023-03-02T22:15:14.324Z,15.27
2023-03-02T22:17:46.176Z,14.52
2023-03-02T22:20:19.626Z,16.77
2023-03-02T22:25:22.620Z,13.05
2023-03-02T22:27:52.232Z,12.00
2023-03-02T22:30:24.913Z,12.68
2023-03-02T22:32:54.910Z,14.57
2023-03-02T22:35:26.529Z,16.63
2023-03-02T22:38:03.292Z,14.27
2023-03-02T22:40:34.750Z,15.13
2023-03-02T22:43:15.984Z,13.95
2023-03-02T22:45:48.048Z,11.05
2023-03-02T22:48:20.567Z,17.63
2023-03-02T22:50:55.121Z,12.68
2023-03-02T22:53:27.513Z,16.10
2023-03-02T22:55:59.715Z,18.63
2023-03-02T22:58:32.585Z,14.20
2023-03-02T23:01:03.838Z,17.48
2023-03-02T23:03:39.836Z,13.30
2023-03-02T23:06:24.629Z,12.73
2023-03-02T23:08:55.445Z,15.30
2023-03-02T23:11:25.810Z,14.40
2023-03-02T23:13:56.025Z,14.30
2023-03-02T23:16:30.569Z,15.23
2023-03-02T23:19:03.741Z,15.20
2023-03-02T23:21:38.938Z,16.85
2023-03-02T23:24:10.508Z,16.10
2023-03-02T23:26:39.837Z,19.65
2023-03-02T23:29:09.110Z,18.75
2023-03-02T23:31:39.459Z,16.33
2023-03-02T23:34:08.772Z,18.85
2023-03-02T23:36:37.878Z,24.58
2023-03-02T23:39:10.180Z,18.35
2023-03-02T23:41:42.404Z,20.58
2023-03-02T23:44:11.492Z,20.80
2023-03-02T23:46:41.858Z,18.58
2023-03-02T23:49:11.929Z,24.70
2023-03-02T23:51:41.452Z,24.65
2023-03-02T23:54:14.005Z,21.92
2023-03-02T23:56:43.525Z,23.35
2023-03-02T23:59:12.464Z,22.15
